KJFX

Walker County-Bevill Field Airport

Jasper, Alabama, USA
METAR KJFX 190535Z AUTO 00000KT 4SM BR CLR 20/20 A2996 RMK AO2 PWINO
Observed Flight Rules
Sep-19 @ 05:35 UTC (15 minutes ago) Marginal Visual Flight Rules
Visibility Clouds Conditions
4 miles
  • Clear skies
  • Mist
Temperatures Readings
Current 20°C / 68°F
Dewpoint 20°C / 68°F
Humidity 100%
Altimeter 29.96" Hg
Pressure 1015 hPa
Elevation 148
METAR KJFX 190535Z AUTO 00000KT 4SM BR CLR 20/20 A2996 RMK AO2 PWINO
Observed Flight Rules
Sep-19 @ 05:35 UTC
(15 minutes ago)
MVFR
Clouds
  • Clear skies
Conditions
  • Mist
Temperature Dewpoint
20°C / 68°F 20°C / 68°F
Humidity Altimeter Pressure
100% 29.96" Hg 1015 hPa